createdAt,value
2023-02-08T00:00:44.797Z,57.24
2023-02-08T00:01:44.839Z,57.49
2023-02-08T00:02:44.786Z,58.08
2023-02-08T00:03:44.829Z,56.41
2023-02-08T00:04:44.751Z,56.69
2023-02-08T00:05:44.752Z,56.13
2023-02-08T00:06:44.697Z,56.04
2023-02-08T00:07:44.777Z,56.53
2023-02-08T00:08:44.720Z,58.30
2023-02-08T00:09:44.719Z,56.91
2023-02-08T00:10:44.717Z,57.26
2023-02-08T00:11:44.709Z,57.20
2023-02-08T00:12:44.705Z,57.67
2023-02-08T00:13:44.731Z,56.95
2023-02-08T00:14:44.679Z,56.27
2023-02-08T00:15:44.723Z,56.07
2023-02-08T00:16:44.712Z,56.06
2023-02-08T00:17:44.706Z,55.94
2023-02-08T00:18:44.657Z,56.05
2023-02-08T00:19:44.726Z,55.85
2023-02-08T00:20:44.647Z,55.74
2023-02-08T00:21:44.651Z,56.26
2023-02-08T00:22:44.648Z,56.59
2023-02-08T00:23:44.637Z,56.17
2023-02-08T00:24:44.634Z,55.61
2023-02-08T00:25:44.664Z,55.60
2023-02-08T00:26:44.599Z,55.47
2023-02-08T00:27:44.623Z,55.75
2023-02-08T00:28:44.582Z,55.63
2023-02-08T00:29:44.578Z,55.86
2023-02-08T00:30:44.680Z,56.08
2023-02-08T00:31:45.033Z,56.33
2023-02-08T00:32:44.586Z,57.27
2023-02-08T00:33:44.556Z,55.65
2023-02-08T00:34:44.564Z,57.87
2023-02-08T00:35:44.558Z,55.70
2023-02-08T00:36:44.537Z,55.59
2023-02-08T00:37:44.611Z,57.99
2023-02-08T00:38:44.544Z,56.07
2023-02-08T00:39:44.504Z,56.06
2023-02-08T00:40:44.512Z,56.07
2023-02-08T00:41:44.512Z,56.31
2023-02-08T00:42:44.521Z,57.20
2023-02-08T00:43:44.574Z,55.86
2023-02-08T00:44:44.499Z,55.98
2023-02-08T00:45:44.497Z,55.72
2023-02-08T00:46:44.495Z,55.71
2023-02-08T00:47:44.462Z,55.85
2023-02-08T00:48:44.489Z,55.98
2023-02-08T00:49:44.751Z,56.08
2023-02-08T00:50:44.456Z,56.03
2023-02-08T00:51:44.454Z,55.85
2023-02-08T00:52:44.427Z,55.96
2023-02-08T00:53:44.452Z,56.15
2023-02-08T00:54:44.437Z,56.26
2023-02-08T00:55:44.492Z,57.64
2023-02-08T00:56:44.411Z,56.25
2023-02-08T00:57:44.436Z,57.06
2023-02-08T00:58:44.411Z,56.30
2023-02-08T00:59:44.430Z,56.46
2023-02-08T01:00:44.443Z,56.07
2023-02-08T01:01:44.501Z,56.07
2023-02-08T01:02:44.415Z,56.54
2023-02-08T01:03:44.380Z,56.66
2023-02-08T01:04:44.364Z,56.57
2023-02-08T01:05:44.337Z,56.19
2023-02-08T01:06:44.355Z,55.83
2023-02-08T01:07:44.437Z,55.77
2023-02-08T01:08:44.330Z,55.65
2023-02-08T01:09:44.358Z,55.66
2023-02-08T01:10:44.356Z,55.70
2023-02-08T01:11:44.307Z,55.85
2023-02-08T01:12:44.318Z,56.15
2023-02-08T01:13:44.406Z,56.21
2023-02-08T01:14:44.297Z,56.59
2023-02-08T01:15:44.323Z,56.59
2023-02-08T01:16:44.316Z,56.22
2023-02-08T01:17:44.271Z,56.31
2023-02-08T01:18:44.263Z,56.70
2023-02-08T01:19:44.309Z,56.56
2023-02-08T01:20:44.276Z,56.31
2023-02-08T01:21:44.245Z,55.64
2023-02-08T01:22:44.248Z,55.53
2023-02-08T01:23:44.243Z,55.79
2023-02-08T01:24:44.272Z,56.08
2023-02-08T01:25:44.296Z,56.13
2023-02-08T01:26:44.232Z,56.75
2023-02-08T01:27:44.213Z,57.18
2023-02-08T01:28:44.226Z,56.70
2023-02-08T01:29:44.198Z,56.58
2023-02-08T01:30:44.232Z,56.36
2023-02-08T01:31:44.343Z,56.50
2023-02-08T01:32:44.172Z,56.37
2023-02-08T01:33:44.173Z,56.40
2023-02-08T01:34:44.384Z,56.26
2023-02-08T01:35:44.175Z,56.48
2023-02-08T01:36:44.176Z,56.20
2023-02-08T01:37:44.208Z,56.91
2023-02-08T01:38:44.116Z,56.64
2023-02-08T01:39:44.147Z,56.48
2023-02-08T01:40:44.135Z,56.67
2023-02-08T01:41:44.141Z,56.76
2023-02-08T01:42:44.100Z,56.80
2023-02-08T01:43:44.153Z,56.63
2023-02-08T01:44:44.101Z,56.51
2023-02-08T01:45:44.130Z,56.71
2023-02-08T01:46:44.098Z,56.52
2023-02-08T01:47:44.086Z,56.43
2023-02-08T01:48:44.120Z,56.40
2023-02-08T01:49:44.125Z,56.24
2023-02-08T01:50:44.089Z,56.10
2023-02-08T01:51:44.079Z,56.07
2023-02-08T01:52:44.045Z,56.17
2023-02-08T01:53:44.066Z,56.13
2023-02-08T01:54:44.061Z,56.46
2023-02-08T01:55:44.085Z,56.71
2023-02-08T01:56:44.010Z,56.66
2023-02-08T01:57:44.048Z,56.67
2023-02-08T01:58:44.009Z,56.99
2023-02-08T01:59:43.991Z,56.83
2023-02-08T02:00:44.077Z,56.15
2023-02-08T02:01:44.037Z,55.53
2023-02-08T02:02:43.991Z,55.33
2023-02-08T02:03:43.974Z,55.43
2023-02-08T02:04:44.053Z,55.47
2023-02-08T02:05:43.977Z,55.70
2023-02-08T02:06:43.952Z,55.76
2023-02-08T02:07:44.015Z,55.96
2023-02-08T02:08:43.960Z,55.84
2023-02-08T02:09:43.938Z,56.34
2023-02-08T02:10:43.945Z,56.37
2023-02-08T02:11:43.926Z,56.91
2023-02-08T02:12:43.902Z,56.26
2023-02-08T02:13:43.983Z,56.30
2023-02-08T02:14:43.897Z,56.97
2023-02-08T02:15:43.894Z,55.83
2023-02-08T02:16:43.896Z,55.48
2023-02-08T02:17:43.888Z,55.55
2023-02-08T02:18:43.897Z,55.78
2023-02-08T02:19:43.918Z,55.92
2023-02-08T02:20:43.858Z,56.65
2023-02-08T02:21:43.864Z,55.75
2023-02-08T02:22:43.894Z,55.76
2023-02-08T02:23:43.837Z,55.98
2023-02-08T02:24:43.834Z,57.81
2023-02-08T02:25:43.883Z,56.13
2023-02-08T02:26:43.840Z,55.99
2023-02-08T02:27:43.841Z,56.27
2023-02-08T02:28:43.825Z,56.46
2023-02-08T02:29:43.799Z,56.44
2023-02-08T02:30:43.960Z,56.30
2023-02-08T02:31:43.931Z,55.78
2023-02-08T02:32:43.790Z,55.71
2023-02-08T02:33:43.795Z,55.77
2023-02-08T02:34:43.780Z,55.90
2023-02-08T02:35:43.778Z,55.80
2023-02-08T02:36:43.819Z,56.72
2023-02-08T02:37:44.231Z,57.42
2023-02-08T02:38:43.739Z,56.67
2023-02-08T02:39:43.736Z,56.47
2023-02-08T02:40:43.725Z,57.79
2023-02-08T02:41:43.724Z,58.80
2023-02-08T02:42:43.711Z,56.58
2023-02-08T02:43:43.768Z,56.98
2023-02-08T02:44:43.714Z,57.16
2023-02-08T02:45:43.725Z,57.27
2023-02-08T02:46:43.700Z,57.28
2023-02-08T02:47:43.684Z,57.13
2023-02-08T02:48:43.702Z,56.88
2023-02-08T02:49:43.733Z,59.03
2023-02-08T02:50:43.670Z,55.72
2023-02-08T02:51:43.667Z,55.97
2023-02-08T02:52:43.655Z,55.99
2023-02-08T02:53:43.649Z,56.01
2023-02-08T02:54:43.669Z,56.16
2023-02-08T02:55:43.699Z,56.17
2023-02-08T02:56:43.640Z,56.22
2023-02-08T02:57:43.640Z,56.14
2023-02-08T02:58:43.663Z,55.99
2023-02-08T02:59:43.604Z,56.15
2023-02-08T03:00:43.644Z,55.86
2023-02-08T03:01:43.656Z,57.04
2023-02-08T03:02:43.583Z,57.77
2023-02-08T03:03:43.607Z,56.66
2023-02-08T03:04:43.582Z,57.85
2023-02-08T03:05:43.563Z,56.30
2023-02-08T03:06:43.576Z,56.46
2023-02-08T03:07:43.621Z,56.38
2023-02-08T03:08:43.550Z,57.92
2023-02-08T03:09:43.565Z,56.60
2023-02-08T03:10:43.533Z,56.56
2023-02-08T03:11:43.554Z,56.49
2023-02-08T03:12:43.525Z,56.61
2023-02-08T03:13:43.547Z,56.76
2023-02-08T03:14:43.516Z,56.78
2023-02-08T03:15:43.505Z,56.16
2023-02-08T03:16:43.597Z,56.03
2023-02-08T03:17:43.531Z,56.23
2023-02-08T03:18:43.478Z,56.39
2023-02-08T03:19:43.537Z,56.40
2023-02-08T03:20:43.480Z,56.30
2023-02-08T03:21:43.499Z,56.20
2023-02-08T03:22:43.460Z,56.25
2023-02-08T03:23:43.444Z,56.22
2023-02-08T03:24:43.436Z,56.92
2023-02-08T03:25:43.516Z,57.23
2023-02-08T03:26:43.431Z,56.77
2023-02-08T03:27:43.441Z,58.37
2023-02-08T03:28:43.444Z,56.65
2023-02-08T03:29:43.423Z,56.42
2023-02-08T03:30:43.777Z,56.34
2023-02-08T03:31:43.577Z,58.33
2023-02-08T03:32:43.407Z,56.47
2023-02-08T03:33:43.400Z,56.17
2023-02-08T03:34:43.388Z,56.24
2023-02-08T03:35:43.436Z,57.87
2023-02-08T03:36:43.440Z,56.36
2023-02-08T03:37:44.010Z,56.14
2023-02-08T03:38:43.347Z,55.96
2023-02-08T03:39:43.354Z,55.96
2023-02-08T03:40:43.528Z,56.18
2023-02-08T03:41:43.351Z,56.34
2023-02-08T03:42:43.341Z,56.62
2023-02-08T03:43:43.382Z,56.67
2023-02-08T03:44:43.352Z,56.60
2023-02-08T03:45:43.378Z,56.60
2023-02-08T03:46:43.327Z,56.54
2023-02-08T03:47:43.332Z,56.58
2023-02-08T03:48:43.323Z,56.53
2023-02-08T03:49:43.324Z,56.51
2023-02-08T03:50:43.297Z,57.61
2023-02-08T03:51:43.277Z,57.55
2023-02-08T03:52:43.251Z,57.38
2023-02-08T03:53:43.290Z,58.41
2023-02-08T03:54:43.263Z,58.11
2023-02-08T03:55:43.270Z,56.60
2023-02-08T03:56:43.245Z,56.39
2023-02-08T03:57:43.234Z,56.69
2023-02-08T03:58:43.232Z,56.50
2023-02-08T03:59:43.254Z,56.80
2023-02-08T04:00:43.192Z,56.08
2023-02-08T04:01:43.316Z,56.30
2023-02-08T04:02:43.239Z,56.47
2023-02-08T04:03:43.193Z,56.74
2023-02-08T04:04:43.189Z,58.33
2023-02-08T04:05:43.180Z,56.61
2023-02-08T04:06:43.189Z,56.53
2023-02-08T04:07:43.225Z,58.65
2023-02-08T04:08:43.179Z,56.63
2023-02-08T04:09:43.169Z,58.94
2023-02-08T04:10:43.332Z,57.58
2023-02-08T04:11:43.148Z,58.34
2023-02-08T04:12:43.132Z,56.83
2023-02-08T04:13:43.169Z,56.75
2023-02-08T04:14:43.131Z,56.58
2023-02-08T04:15:43.152Z,56.76
2023-02-08T04:16:43.104Z,57.08
2023-02-08T04:17:43.113Z,56.82
2023-02-08T04:18:43.118Z,56.92
2023-02-08T04:19:43.170Z,56.57
2023-02-08T04:20:43.078Z,56.63
2023-02-08T04:21:43.065Z,56.55
2023-02-08T04:22:43.052Z,56.42
2023-02-08T04:23:43.105Z,56.92
2023-02-08T04:24:43.103Z,57.55
2023-02-08T04:25:43.091Z,56.90
2023-02-08T04:26:43.032Z,57.49
2023-02-08T04:27:43.034Z,57.58
2023-02-08T04:28:43.032Z,57.92
2023-02-08T04:29:43.049Z,58.64
2023-02-08T04:30:43.341Z,59.52
2023-02-08T04:31:43.142Z,57.01
2023-02-08T04:32:43.010Z,59.27
2023-02-08T04:33:42.989Z,56.67
2023-02-08T04:34:42.992Z,58.10
2023-02-08T04:35:42.998Z,56.95
2023-02-08T04:36:42.988Z,56.81
2023-02-08T04:37:43.029Z,57.30
2023-02-08T04:38:42.958Z,59.24
2023-02-08T04:39:42.961Z,59.03
2023-02-08T04:40:43.114Z,56.87
2023-02-08T04:41:42.933Z,56.88
2023-02-08T04:42:42.922Z,56.91
2023-02-08T04:43:43.151Z,60.20
2023-02-08T04:44:42.889Z,56.49
2023-02-08T04:45:42.891Z,56.63
2023-02-08T04:46:42.953Z,56.74
2023-02-08T04:47:42.893Z,57.45
2023-02-08T04:48:42.876Z,59.41
2023-02-08T04:49:42.950Z,57.36
2023-02-08T04:50:43.079Z,56.99
2023-02-08T04:51:42.856Z,58.58
2023-02-08T04:52:42.839Z,57.27
2023-02-08T04:53:42.841Z,57.69
2023-02-08T04:54:42.864Z,57.15
2023-02-08T04:55:42.871Z,57.07
2023-02-08T04:56:42.796Z,56.72
2023-02-08T04:57:42.828Z,56.91
2023-02-08T04:58:42.831Z,56.92
2023-02-08T04:59:42.806Z,57.01
2023-02-08T05:00:42.996Z,57.14
2023-02-08T05:01:42.899Z,58.42
2023-02-08T05:02:42.770Z,58.84
2023-02-08T05:03:42.789Z,56.95
2023-02-08T05:04:42.788Z,59.08
2023-02-08T05:05:42.749Z,58.35
2023-02-08T05:06:42.791Z,59.13
2023-02-08T05:07:42.805Z,58.81
2023-02-08T05:08:42.748Z,57.33
2023-02-08T05:09:42.746Z,57.79
2023-02-08T05:10:42.817Z,57.79
2023-02-08T05:11:42.697Z,59.34
2023-02-08T05:12:43.235Z,58.88
2023-02-08T05:13:42.764Z,57.78
2023-02-08T05:14:42.686Z,58.74
2023-02-08T05:15:42.726Z,60.36
2023-02-08T05:16:42.698Z,61.44
2023-02-08T05:17:42.692Z,59.54
2023-02-08T05:18:42.668Z,57.66
2023-02-08T05:19:42.730Z,58.41
2023-02-08T05:20:42.824Z,58.45
2023-02-08T05:21:42.647Z,58.75
2023-02-08T05:22:42.642Z,57.81
2023-02-08T05:23:43.508Z,59.02
2023-02-08T05:24:42.618Z,58.83
2023-02-08T05:25:42.677Z,58.12
2023-02-08T05:26:42.607Z,57.25
2023-02-08T05:27:42.618Z,57.84
2023-02-08T05:28:42.595Z,59.45
2023-02-08T05:29:42.605Z,59.73
2023-02-08T05:30:42.881Z,59.30
2023-02-08T05:31:42.775Z,59.34
2023-02-08T05:32:42.565Z,60.33
2023-02-08T05:33:42.575Z,58.47
2023-02-08T05:34:42.566Z,60.65
2023-02-08T05:35:42.536Z,62.78
2023-02-08T05:36:42.542Z,61.47
2023-02-08T05:37:42.604Z,57.75
2023-02-08T05:38:42.546Z,58.44
2023-02-08T05:39:42.550Z,60.02
2023-02-08T05:40:42.717Z,58.25
2023-02-08T05:41:42.534Z,58.79
2023-02-08T05:42:42.506Z,58.46
2023-02-08T05:43:42.637Z,58.41
2023-02-08T05:44:42.519Z,57.16
2023-02-08T05:45:42.482Z,57.27
2023-02-08T05:46:42.504Z,59.66
2023-02-08T05:47:42.479Z,59.07
2023-02-08T05:48:42.490Z,58.11
2023-02-08T05:49:42.535Z,58.15
2023-02-08T05:50:42.656Z,58.25
2023-02-08T05:51:42.441Z,66.85
2023-02-08T05:52:42.461Z,65.67
2023-02-08T05:53:42.450Z,61.95
2023-02-08T05:54:42.461Z,58.53
2023-02-08T05:55:42.472Z,59.76
2023-02-08T05:56:42.426Z,62.80
2023-02-08T05:57:42.429Z,60.12
2023-02-08T05:59:22.544Z,62.76
2023-02-08T05:59:46.154Z,67.54
2023-02-08T06:00:42.523Z,64.35
2023-02-08T06:01:42.442Z,61.92
2023-02-08T06:02:42.446Z,61.04
2023-02-08T06:03:42.365Z,61.94
2023-02-08T06:04:42.369Z,61.71
2023-02-08T06:05:42.356Z,57.93
2023-02-08T06:06:42.407Z,60.46
2023-02-08T06:07:42.388Z,60.52
2023-02-08T06:08:42.344Z,58.59
2023-02-08T06:09:42.315Z,58.70
2023-02-08T06:10:42.470Z,58.69
2023-02-08T06:11:42.313Z,59.28
2023-02-08T06:12:42.309Z,60.99
2023-02-08T06:13:42.371Z,61.35
2023-02-08T06:14:42.315Z,62.96
2023-02-08T06:15:42.290Z,60.04
2023-02-08T06:16:42.374Z,64.05
2023-02-08T06:17:42.322Z,60.34
2023-02-08T06:18:42.297Z,58.94
2023-02-08T06:19:42.321Z,58.68
2023-02-08T06:20:42.542Z,61.79
2023-02-08T06:21:42.281Z,57.56
2023-02-08T06:22:42.300Z,59.57
2023-02-08T06:23:42.280Z,60.06
2023-02-08T06:24:42.229Z,59.13
2023-02-08T06:25:42.300Z,60.69
2023-02-08T06:26:42.209Z,62.13
2023-02-08T06:27:42.212Z,59.97
2023-02-08T06:28:42.254Z,61.29
2023-02-08T06:29:42.202Z,61.80
2023-02-08T06:30:42.487Z,62.07
2023-02-08T06:31:42.360Z,65.37
2023-02-08T06:32:42.187Z,64.44
2023-02-08T06:33:42.226Z,62.17
2023-02-08T06:34:42.200Z,59.84
2023-02-08T06:35:42.189Z,61.94
2023-02-08T06:36:42.155Z,61.68
2023-02-08T06:37:42.188Z,62.11
2023-02-08T06:38:42.147Z,61.69
2023-02-08T06:39:42.125Z,62.35
2023-02-08T06:40:42.437Z,60.37
2023-02-08T06:41:42.109Z,62.97
2023-02-08T06:42:42.100Z,62.35
2023-02-08T06:43:42.180Z,63.36
2023-02-08T06:44:54.085Z,63.49
2023-02-08T06:45:43.127Z,61.81
2023-02-08T06:46:42.109Z,62.92
2023-02-08T06:47:42.079Z,62.76
2023-02-08T06:48:42.086Z,65.53
2023-02-08T06:49:42.493Z,64.97
2023-02-08T06:50:42.464Z,62.64
2023-02-08T06:51:42.085Z,64.65
2023-02-08T06:52:42.057Z,63.28
2023-02-08T06:53:42.052Z,63.96
2023-02-08T06:54:42.024Z,64.33
2023-02-08T06:55:42.138Z,64.34
2023-02-08T06:56:42.029Z,62.92
2023-02-08T06:57:42.042Z,64.12
2023-02-08T06:58:42.017Z,62.38
2023-02-08T06:59:42.015Z,64.82
2023-02-08T07:00:42.267Z,61.88
2023-02-08T07:01:42.089Z,62.06
2023-02-08T07:02:41.993Z,64.12
2023-02-08T07:03:41.956Z,64.11
2023-02-08T07:04:41.961Z,61.42
2023-02-08T07:05:49.510Z,61.64
2023-02-08T07:06:43.007Z,62.78
2023-02-08T07:07:41.960Z,61.36
2023-02-08T07:08:41.951Z,63.29
2023-02-08T07:09:41.955Z,61.58
2023-02-08T07:10:42.910Z,61.78
2023-02-08T07:11:41.926Z,63.38
2023-02-08T07:12:41.982Z,60.14
2023-02-08T07:13:41.929Z,63.42
2023-02-08T07:14:41.918Z,63.32
2023-02-08T07:15:41.895Z,62.54
2023-02-08T07:16:41.996Z,59.96
2023-02-08T07:17:41.901Z,63.19
2023-02-08T07:18:41.930Z,61.59
2023-02-08T07:19:41.874Z,63.59
2023-02-08T07:20:41.988Z,61.53
2023-02-08T07:21:41.874Z,64.44
2023-02-08T07:22:41.880Z,68.27
2023-02-08T07:23:41.834Z,67.39
2023-02-08T07:24:41.890Z,66.61
2023-02-08T07:25:41.827Z,64.55
2023-02-08T07:26:41.825Z,64.42
2023-02-08T07:27:41.812Z,67.00
2023-02-08T07:28:41.791Z,66.68
2023-02-08T07:29:41.807Z,69.34
2023-02-08T07:30:42.153Z,66.59
2023-02-08T07:31:41.821Z,66.42
2023-02-08T07:32:41.810Z,64.10
2023-02-08T07:33:41.785Z,62.62
2023-02-08T07:34:41.761Z,64.28
2023-02-08T07:35:41.741Z,64.50
2023-02-08T07:36:41.810Z,63.11
2023-02-08T07:37:41.737Z,62.11
2023-02-08T07:38:41.767Z,62.29
2023-02-08T07:39:41.777Z,63.89
2023-02-08T07:40:41.978Z,62.60
2023-02-08T07:41:41.736Z,66.23
2023-02-08T07:42:41.780Z,66.10
2023-02-08T07:43:41.721Z,61.35
2023-02-08T07:44:41.703Z,61.10
2023-02-08T07:45:41.699Z,64.31
2023-02-08T07:46:41.683Z,63.60
2023-02-08T07:47:41.695Z,61.49
2023-02-08T07:48:41.722Z,62.29
2023-02-08T07:49:41.660Z,63.15
2023-02-08T07:50:41.926Z,64.15
2023-02-08T07:51:41.676Z,63.73
2023-02-08T07:52:41.650Z,64.61
2023-02-08T07:53:41.641Z,63.87
2023-02-08T07:54:41.968Z,63.18
2023-02-08T07:55:41.640Z,60.78
2023-02-08T07:56:41.637Z,61.82
2023-02-08T07:57:41.624Z,62.38
2023-02-08T07:58:41.611Z,62.20
2023-02-08T07:59:41.620Z,62.30
2023-02-08T08:00:41.918Z,60.69
2023-02-08T08:01:41.646Z,60.96
2023-02-08T08:02:41.594Z,62.74
2023-02-08T08:03:41.591Z,64.37
2023-02-08T08:04:41.568Z,60.18
2023-02-08T08:05:41.598Z,62.73
2023-02-08T08:06:41.620Z,62.10
2023-02-08T08:07:41.580Z,61.93
2023-02-08T08:08:41.565Z,62.24
2023-02-08T08:09:41.539Z,64.08
2023-02-08T08:10:41.894Z,65.31
2023-02-08T08:11:41.532Z,64.84
2023-02-08T08:12:41.587Z,62.96
2023-02-08T08:13:41.505Z,60.29
2023-02-08T08:14:41.500Z,61.32
2023-02-08T08:15:41.579Z,59.67
2023-02-08T08:16:41.498Z,63.06
2023-02-08T08:17:52.130Z,64.36
2023-02-08T08:18:42.555Z,63.99
2023-02-08T08:19:41.503Z,64.23
2023-02-08T08:20:41.721Z,63.61
2023-02-08T08:21:41.454Z,64.48
2023-02-08T08:22:41.468Z,64.94
2023-02-08T08:23:41.455Z,64.63
2023-02-08T08:24:41.498Z,60.45
2023-02-08T08:25:41.456Z,63.03
2023-02-08T08:26:41.451Z,61.10
2023-02-08T08:27:41.413Z,60.72
2023-02-08T08:28:41.420Z,60.02
2023-02-08T08:29:41.393Z,61.83
2023-02-08T08:30:41.653Z,63.21
2023-02-08T08:31:41.463Z,64.66
2023-02-08T08:32:41.400Z,63.09
2023-02-08T08:33:41.397Z,61.93
2023-02-08T08:34:41.398Z,58.40
2023-02-08T08:35:41.373Z,62.09
2023-02-08T08:36:41.449Z,63.30
2023-02-08T08:37:41.368Z,60.58
2023-02-08T08:38:41.350Z,62.31
2023-02-08T08:39:41.340Z,64.88
2023-02-08T08:40:41.508Z,64.19
2023-02-08T08:41:41.321Z,61.60
2023-02-08T08:42:41.375Z,60.93
2023-02-08T08:43:41.316Z,59.79
2023-02-08T08:44:41.310Z,60.15
2023-02-08T08:45:41.306Z,63.11
2023-02-08T08:46:41.304Z,63.41
2023-02-08T08:47:41.308Z,63.12
2023-02-08T08:48:41.311Z,60.11
2023-02-08T08:49:41.297Z,60.39
2023-02-08T08:50:41.560Z,63.47
2023-02-08T08:51:41.267Z,61.59
2023-02-08T08:52:41.265Z,61.87
2023-02-08T08:53:41.253Z,63.98
2023-02-08T08:54:41.520Z,63.67
2023-02-08T08:55:41.215Z,64.06
2023-02-08T08:56:41.234Z,64.20
2023-02-08T08:57:41.253Z,63.44
2023-02-08T08:58:41.213Z,61.22
2023-02-08T08:59:41.226Z,61.76
2023-02-08T09:00:41.494Z,62.91
2023-02-08T09:01:41.274Z,62.16
2023-02-08T09:02:41.186Z,60.97
2023-02-08T09:03:41.174Z,60.71
2023-02-08T09:04:41.197Z,59.98
2023-02-08T09:05:41.188Z,66.24
2023-02-08T09:06:41.191Z,64.39
2023-02-08T09:07:41.145Z,64.58
2023-02-08T09:08:41.135Z,60.76
2023-02-08T09:09:41.126Z,59.62
2023-02-08T09:10:41.367Z,59.12
2023-02-08T09:11:41.125Z,59.57
2023-02-08T09:12:41.219Z,60.03
2023-02-08T09:13:41.134Z,59.89
2023-02-08T09:14:41.077Z,60.10
2023-02-08T09:15:41.126Z,61.29
2023-02-08T09:16:41.097Z,61.60
2023-02-08T09:17:58.962Z,65.79
2023-02-08T09:18:41.131Z,61.85
2023-02-08T09:19:41.102Z,61.26
2023-02-08T09:20:41.397Z,61.21
2023-02-08T09:21:41.042Z,62.41
2023-02-08T09:22:41.032Z,62.96
2023-02-08T09:23:41.051Z,59.68
2023-02-08T09:24:41.070Z,59.59
2023-02-08T09:25:41.008Z,62.38
2023-02-08T09:26:41.093Z,62.20
2023-02-08T09:27:41.009Z,60.27
2023-02-08T09:28:41.000Z,60.16
2023-02-08T09:29:41.064Z,61.07
2023-02-08T09:30:41.480Z,59.42
2023-02-08T09:31:41.144Z,57.84
2023-02-08T09:32:40.953Z,60.36
2023-02-08T09:33:40.973Z,60.14
2023-02-08T09:34:40.961Z,60.15
2023-02-08T09:35:41.118Z,60.81
2023-02-08T09:36:40.961Z,60.60
2023-02-08T09:37:40.917Z,60.91
2023-02-08T09:38:40.907Z,61.08
2023-02-08T09:39:40.914Z,60.62
2023-02-08T09:40:41.391Z,58.09
2023-02-08T09:41:40.918Z,61.28
2023-02-08T09:42:40.964Z,59.14
2023-02-08T09:43:40.907Z,57.45
2023-02-08T09:44:40.887Z,59.42
2023-02-08T09:45:51.127Z,59.90
2023-02-08T09:46:41.960Z,57.53
2023-02-08T09:47:40.864Z,56.35
2023-02-08T09:48:40.924Z,60.47
2023-02-08T09:49:40.849Z,59.11
2023-02-08T09:50:40.963Z,59.25
2023-02-08T09:51:40.837Z,58.50
2023-02-08T09:52:40.835Z,60.09
2023-02-08T09:53:40.807Z,59.12
2023-02-08T09:54:40.877Z,61.41
2023-02-08T09:55:40.806Z,63.31
2023-02-08T09:56:40.841Z,61.21
2023-02-08T09:57:40.818Z,60.13
2023-02-08T09:58:40.811Z,60.85
2023-02-08T09:59:40.753Z,59.65
2023-02-08T10:00:41.390Z,61.02
2023-02-08T10:01:40.754Z,60.00
2023-02-08T10:02:40.799Z,57.89
2023-02-08T10:03:40.817Z,57.38
2023-02-08T10:04:40.752Z,60.19
2023-02-08T10:05:40.748Z,64.21
2023-02-08T10:06:40.803Z,64.48
2023-02-08T10:07:40.732Z,61.33
2023-02-08T10:08:40.728Z,61.10
2023-02-08T10:09:40.721Z,61.81
2023-02-08T10:10:40.902Z,69.53
2023-02-08T10:11:40.688Z,69.25
2023-02-08T10:12:40.747Z,85.40
2023-02-08T10:13:41.852Z,77.66
2023-02-08T10:14:40.707Z,74.67
2023-02-08T10:15:40.668Z,58.44
2023-02-08T10:16:40.678Z,58.72
2023-02-08T10:17:40.646Z,59.16
2023-02-08T10:18:40.709Z,57.82
2023-02-08T10:19:40.637Z,60.50
2023-02-08T10:20:40.888Z,57.60
2023-02-08T10:21:40.625Z,59.20
2023-02-08T10:22:40.608Z,62.15
2023-02-08T10:23:40.588Z,59.05
2023-02-08T10:24:40.668Z,58.00
2023-02-08T10:25:40.649Z,59.51
2023-02-08T10:26:40.602Z,60.27
2023-02-08T10:27:40.615Z,59.86
2023-02-08T10:28:40.580Z,59.18
2023-02-08T10:29:40.573Z,59.48
2023-02-08T10:30:40.751Z,59.65
2023-02-08T10:31:40.569Z,59.81
2023-02-08T10:32:40.548Z,59.78
2023-02-08T10:33:40.548Z,59.70
2023-02-08T10:34:40.572Z,60.11
2023-02-08T10:35:40.601Z,58.40
2023-02-08T10:36:40.561Z,58.72
2023-02-08T10:37:40.530Z,57.90
2023-02-08T10:38:46.397Z,59.46
2023-02-08T10:39:41.522Z,56.81
2023-02-08T10:40:40.774Z,55.59
2023-02-08T10:41:40.504Z,58.45
2023-02-08T10:42:40.505Z,58.60
2023-02-08T10:43:40.483Z,59.79
2023-02-08T10:44:40.457Z,58.16
2023-02-08T10:45:40.792Z,58.42
2023-02-08T10:46:40.450Z,60.45
2023-02-08T10:47:40.423Z,55.88
2023-02-08T10:48:40.475Z,57.41
2023-02-08T10:49:40.437Z,59.78
2023-02-08T10:50:40.403Z,58.62
2023-02-08T10:51:40.458Z,59.30
2023-02-08T10:52:40.403Z,60.74
2023-02-08T10:53:40.407Z,58.76
2023-02-08T10:54:40.433Z,56.51
2023-02-08T10:55:40.425Z,57.40
2023-02-08T10:56:40.371Z,57.42
2023-02-08T10:57:40.336Z,58.26
2023-02-08T10:58:40.337Z,58.28
2023-02-08T10:59:40.354Z,59.62
2023-02-08T11:00:40.877Z,61.72
2023-02-08T11:01:40.340Z,62.85
2023-02-08T11:02:40.325Z,60.70
2023-02-08T11:03:40.341Z,59.11
2023-02-08T11:04:40.333Z,57.32
2023-02-08T11:05:40.474Z,57.74
2023-02-08T11:06:40.380Z,56.23
2023-02-08T11:07:40.300Z,55.29
2023-02-08T11:08:40.291Z,53.57
2023-02-08T11:09:40.297Z,58.37
2023-02-08T11:10:40.273Z,58.72
2023-02-08T11:11:41.185Z,59.90
2023-02-08T11:12:40.290Z,56.83
2023-02-08T11:13:40.233Z,58.42
2023-02-08T11:14:46.804Z,57.69
2023-02-08T11:15:41.533Z,57.03
2023-02-08T11:16:40.256Z,59.28
2023-02-08T11:17:40.267Z,59.04
2023-02-08T11:18:40.250Z,57.19
2023-02-08T11:19:40.214Z,58.15
2023-02-08T11:20:40.201Z,56.82
2023-02-08T11:21:40.190Z,58.23
2023-02-08T11:22:40.162Z,56.87
2023-02-08T11:23:40.199Z,58.41
2023-02-08T11:24:40.214Z,59.82
2023-02-08T11:25:40.403Z,66.68
2023-02-08T11:26:40.271Z,68.31
2023-02-08T11:27:40.178Z,67.64
2023-02-08T11:28:40.195Z,68.62
2023-02-08T11:29:40.153Z,66.19
2023-02-08T11:30:40.209Z,67.58
2023-02-08T11:31:40.129Z,69.25
2023-02-08T11:32:40.120Z,69.08
2023-02-08T11:33:40.180Z,67.21
2023-02-08T11:34:40.100Z,66.56
2023-02-08T11:35:40.084Z,64.59
2023-02-08T11:36:40.145Z,68.13
2023-02-08T11:37:40.041Z,66.89
2023-02-08T11:38:40.036Z,65.81
2023-02-08T11:39:40.062Z,64.33
2023-02-08T11:40:40.241Z,68.18
2023-02-08T11:41:40.015Z,65.94
2023-02-08T11:42:40.090Z,66.38
2023-02-08T11:43:40.061Z,65.76
2023-02-08T11:44:40.015Z,65.08
2023-02-08T11:45:40.005Z,64.38
2023-02-08T11:46:40.005Z,64.55
2023-02-08T11:47:40.032Z,65.75
2023-02-08T11:48:40.037Z,66.95
2023-02-08T11:49:39.995Z,65.19
2023-02-08T11:50:39.971Z,63.01
2023-02-08T11:51:59.003Z,62.30
2023-02-08T11:52:40.989Z,59.78
2023-02-08T11:53:40.006Z,61.46
2023-02-08T11:54:39.962Z,67.72
2023-02-08T11:55:40.046Z,60.26
2023-02-08T11:56:39.924Z,62.37
2023-02-08T11:57:41.216Z,58.69
2023-02-08T11:58:39.917Z,57.52
2023-02-08T11:59:39.943Z,56.77
2023-02-08T12:00:40.095Z,59.08
2023-02-08T12:01:39.937Z,56.44
2023-02-08T12:02:40.063Z,55.46
2023-02-08T12:03:40.014Z,56.68
2023-02-08T12:04:39.875Z,56.72
2023-02-08T12:05:39.925Z,56.45
2023-02-08T12:06:40.369Z,59.21
2023-02-08T12:07:39.888Z,57.95
2023-02-08T12:08:39.829Z,55.75
2023-02-08T12:09:39.847Z,57.52
2023-02-08T12:10:39.853Z,56.50
2023-02-08T12:11:39.804Z,60.01
2023-02-08T12:12:39.927Z,58.70
2023-02-08T12:13:39.911Z,55.55
2023-02-08T12:14:39.823Z,56.82
2023-02-08T12:15:51.294Z,55.09
2023-02-08T12:16:40.880Z,55.69
2023-02-08T12:17:39.776Z,57.04
2023-02-08T12:18:39.816Z,59.81
2023-02-08T12:19:39.771Z,55.34
2023-02-08T12:20:39.840Z,57.81
2023-02-08T12:21:39.762Z,58.44
2023-02-08T12:22:39.756Z,56.89
2023-02-08T12:23:39.777Z,57.68
2023-02-08T12:24:39.872Z,57.38
2023-02-08T12:25:39.706Z,57.29
2023-02-08T12:26:39.732Z,55.06
2023-02-08T12:27:39.729Z,56.03
2023-02-08T12:28:39.721Z,55.92
2023-02-08T12:29:47.260Z,56.69
2023-02-08T12:30:40.785Z,56.50
2023-02-08T12:31:39.836Z,55.99
2023-02-08T12:32:39.753Z,58.95
2023-02-08T12:33:39.825Z,57.92
2023-02-08T12:34:39.671Z,58.08
2023-02-08T12:35:48.306Z,58.63
2023-02-08T12:36:40.722Z,57.20
2023-02-08T12:37:39.684Z,60.39
2023-02-08T12:38:39.680Z,63.29
2023-02-08T12:39:39.697Z,60.67
2023-02-08T12:40:39.628Z,58.30
2023-02-08T12:41:39.588Z,59.08
2023-02-08T12:42:39.661Z,57.27
2023-02-08T12:43:39.641Z,57.58
2023-02-08T12:44:39.590Z,56.85
2023-02-08T12:45:39.556Z,55.94
2023-02-08T12:46:39.595Z,55.46
2023-02-08T12:47:39.605Z,55.69
2023-02-08T12:48:39.597Z,55.99
2023-02-08T12:49:39.561Z,58.11
2023-02-08T12:50:39.538Z,58.47
2023-02-08T12:51:39.531Z,56.38
2023-02-08T12:52:39.541Z,56.46